sensor_id;sensor_type;location;lat;lon;timestamp;pressure;altitude;pressure_sealevel;temperature;humidity
21111;BME280;10713;51.912;4.494;2024-01-07T00:01:10;101865.34;;;5.08;100.00
21111;BME280;10713;51.912;4.494;2024-01-07T00:03:36;101862.72;;;5.02;100.00
21111;BME280;10713;51.912;4.494;2024-01-07T00:06:01;101861.84;;;5.12;100.00
21111;BME280;10713;51.912;4.494;2024-01-07T00:08:26;101855.75;;;5.04;100.00
21111;BME280;10713;51.912;4.494;2024-01-07T00:10:52;101871.47;;;5.24;100.00
21111;BME280;10713;51.912;4.494;2024-01-07T00:13:17;101860.09;;;5.22;100.00
21111;BME280;10713;51.912;4.494;2024-01-07T00:15:42;101870.59;;;5.18;100.00
21111;BME280;10713;51.912;4.494;2024-01-07T00:18:08;101864.47;;;4.81;100.00
21111;BME280;10713;51.912;4.494;2024-01-07T00:20:33;101881.03;;;4.97;100.00
21111;BME280;10713;51.912;4.494;2024-01-07T00:22:59;101885.41;;;5.13;100.00
21111;BME280;10713;51.912;4.494;2024-01-07T00:25:24;101886.25;;;4.86;100.00
21111;BME280;10713;51.912;4.494;2024-01-07T00:27:50;101883.66;;;4.69;100.00
21111;BME280;10713;51.912;4.494;2024-01-07T00:30:16;101877.47;;;4.52;100.00
21111;BME280;10713;51.912;4.494;2024-01-07T00:32:41;101882.75;;;4.64;100.00
21111;BME280;10713;51.912;4.494;2024-01-07T00:35:07;101885.34;;;4.47;100.00
21111;BME280;10713;51.912;4.494;2024-01-07T00:37:32;101889.66;;;4.30;100.00
21111;BME280;10713;51.912;4.494;2024-01-07T00:40:00;101901.03;;;4.57;100.00
21111;BME280;10713;51.912;4.494;2024-01-07T00:42:25;101898.44;;;4.69;100.00
21111;BME280;10713;51.912;4.494;2024-01-07T00:44:51;101901.94;;;4.83;100.00
21111;BME280;10713;51.912;4.494;2024-01-07T00:47:16;101875.66;;;4.20;100.00
21111;BME280;10713;51.912;4.494;2024-01-07T00:49:42;101881.59;;;3.82;100.00
21111;BME280;10713;51.912;4.494;2024-01-07T00:52:07;101884.84;;;3.42;100.00
21111;BME280;10713;51.912;4.494;2024-01-07T00:54:33;101895.91;;;3.11;100.00
21111;BME280;10713;51.912;4.494;2024-01-07T00:56:59;101879.38;;;3.09;100.00
21111;BME280;10713;51.912;4.494;2024-01-07T00:59:24;101896.78;;;3.13;100.00
21111;BME280;10713;51.912;4.494;2024-01-07T01:01:49;101907.19;;;3.09;100.00
21111;BME280;10713;51.912;4.494;2024-01-07T01:04:15;101904.63;;;3.13;100.00
21111;BME280;10713;51.912;4.494;2024-01-07T01:06:40;101904.66;;;3.20;100.00
21111;BME280;10713;51.912;4.494;2024-01-07T01:09:05;101904.81;;;3.35;100.00
21111;BME280;10713;51.912;4.494;2024-01-07T01:11:31;101896.03;;;3.28;100.00
21111;BME280;10713;51.912;4.494;2024-01-07T01:13:56;101904.06;;;3.56;100.00
21111;BME280;10713;51.912;4.494;2024-01-07T01:16:21;101913.88;;;3.92;100.00
21111;BME280;10713;51.912;4.494;2024-01-07T01:18:49;101935.44;;;3.62;100.00
21111;BME280;10713;51.912;4.494;2024-01-07T01:21:15;101901.22;;;3.25;100.00
21111;BME280;10713;51.912;4.494;2024-01-07T01:23:40;101907.34;;;3.27;100.00
21111;BME280;10713;51.912;4.494;2024-01-07T01:26:05;101912.81;;;3.63;100.00
21111;BME280;10713;51.912;4.494;2024-01-07T01:28:31;101921.66;;;3.88;100.00
21111;BME280;10713;51.912;4.494;2024-01-07T01:30:56;101921.63;;;3.75;100.00
21111;BME280;10713;51.912;4.494;2024-01-07T01:33:22;101917.91;;;3.44;100.00
21111;BME280;10713;51.912;4.494;2024-01-07T01:35:47;101926.16;;;2.89;100.00
21111;BME280;10713;51.912;4.494;2024-01-07T01:38:13;101923.44;;;2.79;100.00
21111;BME280;10713;51.912;4.494;2024-01-07T01:40:38;101927.78;;;2.78;100.00
21111;BME280;10713;51.912;4.494;2024-01-07T01:43:03;101931.09;;;2.65;100.00
21111;BME280;10713;51.912;4.494;2024-01-07T01:45:29;101934.50;;;2.56;100.00
21111;BME280;10713;51.912;4.494;2024-01-07T01:47:55;101935.22;;;2.46;100.00
21111;BME280;10713;51.912;4.494;2024-01-07T01:50:21;101946.31;;;2.28;100.00
21111;BME280;10713;51.912;4.494;2024-01-07T01:52:48;101948.22;;;2.43;100.00
21111;BME280;10713;51.912;4.494;2024-01-07T01:55:14;101958.78;;;2.54;100.00
21111;BME280;10713;51.912;4.494;2024-01-07T01:57:40;101952.81;;;2.61;100.00
21111;BME280;10713;51.912;4.494;2024-01-07T02:00:06;101956.94;;;2.45;100.00
21111;BME280;10713;51.912;4.494;2024-01-07T02:02:33;101949.03;;;2.37;100.00
21111;BME280;10713;51.912;4.494;2024-01-07T02:05:05;101960.09;;;2.19;100.00
21111;BME280;10713;51.912;4.494;2024-01-07T02:07:31;101956.41;;;2.02;100.00
21111;BME280;10713;51.912;4.494;2024-01-07T02:09:56;101964.22;;;2.02;100.00
21111;BME280;10713;51.912;4.494;2024-01-07T02:12:22;101967.09;;;2.22;100.00
21111;BME280;10713;51.912;4.494;2024-01-07T02:14:47;101967.16;;;2.28;100.00
21111;BME280;10713;51.912;4.494;2024-01-07T02:17:12;101964.41;;;2.17;100.00
21111;BME280;10713;51.912;4.494;2024-01-07T02:19:38;101970.59;;;2.24;100.00
21111;BME280;10713;51.912;4.494;2024-01-07T02:22:04;101976.38;;;2.03;100.00
21111;BME280;10713;51.912;4.494;2024-01-07T02:24:29;101969.16;;;1.84;100.00
21111;BME280;10713;51.912;4.494;2024-01-07T02:26:56;101977.69;;;1.73;100.00
21111;BME280;10713;51.912;4.494;2024-01-07T02:29:21;101979.41;;;1.74;100.00
21111;BME280;10713;51.912;4.494;2024-01-07T02:31:46;101988.91;;;1.69;100.00
21111;BME280;10713;51.912;4.494;2024-01-07T02:34:12;101986.28;;;1.68;100.00
21111;BME280;10713;51.912;4.494;2024-01-07T02:36:37;101988.19;;;1.78;100.00
21111;BME280;10713;51.912;4.494;2024-01-07T02:39:02;101985.72;;;1.87;100.00
21111;BME280;10713;51.912;4.494;2024-01-07T02:41:28;101993.66;;;1.96;100.00
21111;BME280;10713;51.912;4.494;2024-01-07T02:43:54;101993.75;;;2.04;100.00
21111;BME280;10713;51.912;4.494;2024-01-07T02:46:20;101989.25;;;1.92;100.00
21111;BME280;10713;51.912;4.494;2024-01-07T02:48:45;101984.88;;;1.91;100.00
21111;BME280;10713;51.912;4.494;2024-01-07T02:51:11;102003.88;;;1.84;100.00
21111;BME280;10713;51.912;4.494;2024-01-07T02:53:36;101997.53;;;1.67;100.00
21111;BME280;10713;51.912;4.494;2024-01-07T02:56:01;101994.16;;;1.72;100.00
21111;BME280;10713;51.912;4.494;2024-01-07T02:58:27;101992.66;;;1.87;100.00
21111;BME280;10713;51.912;4.494;2024-01-07T03:00:52;101991.03;;;1.96;100.00
21111;BME280;10713;51.912;4.494;2024-01-07T03:03:19;101994.75;;;2.14;100.00
21111;BME280;10713;51.912;4.494;2024-01-07T03:05:44;102004.50;;;2.29;100.00
21111;BME280;10713;51.912;4.494;2024-01-07T03:08:09;102004.50;;;2.27;100.00
21111;BME280;10713;51.912;4.494;2024-01-07T03:10:34;101991.50;;;2.30;100.00
21111;BME280;10713;51.912;4.494;2024-01-07T03:13:00;101999.44;;;2.38;100.00
21111;BME280;10713;51.912;4.494;2024-01-07T03:15:26;102009.75;;;2.32;100.00
21111;BME280;10713;51.912;4.494;2024-01-07T03:17:52;102019.25;;;2.27;100.00
21111;BME280;10713;51.912;4.494;2024-01-07T03:20:17;102009.69;;;2.25;100.00
21111;BME280;10713;51.912;4.494;2024-01-07T03:22:42;102015.97;;;2.43;100.00
21111;BME280;10713;51.912;4.494;2024-01-07T03:25:08;102017.78;;;2.47;100.00
21111;BME280;10713;51.912;4.494;2024-01-07T03:27:33;102025.75;;;2.58;100.00
21111;BME280;10713;51.912;4.494;2024-01-07T03:29:59;102026.59;;;2.55;100.00
21111;BME280;10713;51.912;4.494;2024-01-07T03:32:24;102022.03;;;2.40;100.00
21111;BME280;10713;51.912;4.494;2024-01-07T03:34:49;102023.69;;;2.34;100.00
21111;BME280;10713;51.912;4.494;2024-01-07T03:37:15;102035.47;;;2.07;100.00
21111;BME280;10713;51.912;4.494;2024-01-07T03:39:40;102034.53;;;2.00;100.00
21111;BME280;10713;51.912;4.494;2024-01-07T03:42:05;102041.47;;;2.03;100.00
21111;BME280;10713;51.912;4.494;2024-01-07T03:44:36;102053.22;;;1.76;100.00
21111;BME280;10713;51.912;4.494;2024-01-07T03:47:02;102044.47;;;1.71;100.00
21111;BME280;10713;51.912;4.494;2024-01-07T03:49:27;102048.75;;;1.68;100.00
21111;BME280;10713;51.912;4.494;2024-01-07T03:51:52;102047.88;;;1.67;100.00
21111;BME280;10713;51.912;4.494;2024-01-07T03:54:17;102046.38;;;1.83;100.00
21111;BME280;10713;51.912;4.494;2024-01-07T03:56:43;102062.19;;;1.94;100.00
21111;BME280;10713;51.912;4.494;2024-01-07T03:59:08;102064.69;;;1.86;100.00
21111;BME280;10713;51.912;4.494;2024-01-07T04:01:34;102061.13;;;1.83;100.00
21111;BME280;10713;51.912;4.494;2024-01-07T04:03:59;102073.22;;;1.79;100.00
21111;BME280;10713;51.912;4.494;2024-01-07T04:06:24;102072.72;;;2.03;100.00
21111;BME280;10713;51.912;4.494;2024-01-07T04:08:50;102084.97;;;2.07;100.00
21111;BME280;10713;51.912;4.494;2024-01-07T04:11:15;102083.69;;;1.80;100.00
21111;BME280;10713;51.912;4.494;2024-01-07T04:13:40;102082.38;;;1.57;100.00
21111;BME280;10713;51.912;4.494;2024-01-07T04:16:15;102081.03;;;1.79;100.00
21111;BME280;10713;51.912;4.494;2024-01-07T04:18:40;102081.41;;;2.02;100.00
21111;BME280;10713;51.912;4.494;2024-01-07T04:21:09;102083.50;;;2.24;100.00
21111;BME280;10713;51.912;4.494;2024-01-07T04:23:34;102081.53;;;2.11;100.00
21111;BME280;10713;51.912;4.494;2024-01-07T04:26:00;102096.06;;;1.95;100.00
21111;BME280;10713;51.912;4.494;2024-01-07T04:28:25;102087.16;;;1.83;100.00
21111;BME280;10713;51.912;4.494;2024-01-07T04:30:50;102090.19;;;2.09;100.00
21111;BME280;10713;51.912;4.494;2024-01-07T04:33:16;102083.91;;;1.96;100.00
21111;BME280;10713;51.912;4.494;2024-01-07T04:35:41;102091.50;;;1.80;100.00
21111;BME280;10713;51.912;4.494;2024-01-07T04:38:06;102096.56;;;1.73;100.00
21111;BME280;10713;51.912;4.494;2024-01-07T04:40:33;102097.69;;;1.89;100.00
21111;BME280;10713;51.912;4.494;2024-01-07T04:42:59;102099.81;;;2.13;100.00
21111;BME280;10713;51.912;4.494;2024-01-07T04:45:25;102101.47;;;2.08;100.00
21111;BME280;10713;51.912;4.494;2024-01-07T04:47:50;102099.94;;;2.22;100.00
21111;BME280;10713;51.912;4.494;2024-01-07T04:50:15;102106.25;;;2.36;100.00
21111;BME280;10713;51.912;4.494;2024-01-07T04:52:45;102111.47;;;2.36;100.00
21111;BME280;10713;51.912;4.494;2024-01-07T04:55:10;102117.03;;;2.62;100.00
21111;BME280;10713;51.912;4.494;2024-01-07T04:57:35;102113.63;;;2.66;100.00
21111;BME280;10713;51.912;4.494;2024-01-07T05:00:01;102107.44;;;2.58;100.00
21111;BME280;10713;51.912;4.494;2024-01-07T05:02:27;102117.66;;;2.46;100.00
21111;BME280;10713;51.912;4.494;2024-01-07T05:04:53;102118.28;;;2.27;100.00
21111;BME280;10713;51.912;4.494;2024-01-07T05:07:18;102113.72;;;2.13;100.00
21111;BME280;10713;51.912;4.494;2024-01-07T05:09:43;102120.66;;;2.14;100.00
21111;BME280;10713;51.912;4.494;2024-01-07T05:12:09;102122.78;;;2.40;100.00
21111;BME280;10713;51.912;4.494;2024-01-07T05:14:34;102127.13;;;2.38;100.00
21111;BME280;10713;51.912;4.494;2024-01-07T05:16:59;102128.97;;;2.45;100.00
21111;BME280;10713;51.912;4.494;2024-01-07T05:19:25;102140.31;;;2.48;100.00
21111;BME280;10713;51.912;4.494;2024-01-07T05:21:50;102132.16;;;2.27;100.00
21111;BME280;10713;51.912;4.494;2024-01-07T05:24:15;102141.59;;;2.19;100.00
21111;BME280;10713;51.912;4.494;2024-01-07T05:26:42;102141.91;;;2.39;100.00
21111;BME280;10713;51.912;4.494;2024-01-07T05:29:09;102149.72;;;2.40;100.00
21111;BME280;10713;51.912;4.494;2024-01-07T05:31:34;102145.56;;;2.50;100.00
21111;BME280;10713;51.912;4.494;2024-01-07T05:33:59;102156.03;;;2.55;100.00
21111;BME280;10713;51.912;4.494;2024-01-07T05:36:25;102157.63;;;2.45;100.00
21111;BME280;10713;51.912;4.494;2024-01-07T05:38:50;102162.09;;;2.52;100.00
21111;BME280;10713;51.912;4.494;2024-01-07T05:41:15;102162.25;;;2.07;100.00
21111;BME280;10713;51.912;4.494;2024-01-07T05:43:41;102165.72;;;2.07;100.00
21111;BME280;10713;51.912;4.494;2024-01-07T05:46:06;102167.41;;;2.03;100.00
21111;BME280;10713;51.912;4.494;2024-01-07T05:48:45;102175.94;;;1.95;100.00
21111;BME280;10713;51.912;4.494;2024-01-07T05:51:12;102179.97;;;1.79;100.00
21111;BME280;10713;51.912;4.494;2024-01-07T05:53:37;102172.97;;;1.76;100.00
21111;BME280;10713;51.912;4.494;2024-01-07T05:56:03;102184.41;;;1.85;100.00
21111;BME280;10713;51.912;4.494;2024-01-07T05:58:29;102174.78;;;1.79;100.00
21111;BME280;10713;51.912;4.494;2024-01-07T06:00:55;102194.84;;;1.85;100.00
21111;BME280;10713;51.912;4.494;2024-01-07T06:03:20;102186.16;;;1.86;100.00
21111;BME280;10713;51.912;4.494;2024-01-07T06:05:46;102195.59;;;1.79;100.00
21111;BME280;10713;51.912;4.494;2024-01-07T06:08:11;102196.72;;;1.46;100.00
21111;BME280;10713;51.912;4.494;2024-01-07T06:10:38;102201.47;;;1.25;100.00
21111;BME280;10713;51.912;4.494;2024-01-07T06:13:03;102208.47;;;1.27;100.00
21111;BME280;10713;51.912;4.494;2024-01-07T06:15:29;102209.56;;;1.39;100.00
21111;BME280;10713;51.912;4.494;2024-01-07T06:17:54;102229.06;;;1.59;100.00
21111;BME280;10713;51.912;4.494;2024-01-07T06:20:20;102223.22;;;1.71;100.00
21111;BME280;10713;51.912;4.494;2024-01-07T06:22:46;102220.22;;;1.96;100.00
21111;BME280;10713;51.912;4.494;2024-01-07T06:25:11;102227.09;;;1.93;100.00
21111;BME280;10713;51.912;4.494;2024-01-07T06:27:38;102217.41;;;1.84;100.00
21111;BME280;10713;51.912;4.494;2024-01-07T06:30:06;102218.38;;;1.89;100.00
21111;BME280;10713;51.912;4.494;2024-01-07T06:32:32;102232.47;;;2.00;100.00
21111;BME280;10713;51.912;4.494;2024-01-07T06:34:58;102232.00;;;1.76;100.00
21111;BME280;10713;51.912;4.494;2024-01-07T06:37:23;102224.22;;;1.77;100.00
21111;BME280;10713;51.912;4.494;2024-01-07T06:39:48;102242.13;;;2.06;100.00
21111;BME280;10713;51.912;4.494;2024-01-07T06:42:14;102242.75;;;1.94;100.00
21111;BME280;10713;51.912;4.494;2024-01-07T06:44:39;102239.91;;;1.80;100.00
21111;BME280;10713;51.912;4.494;2024-01-07T06:47:04;102247.72;;;1.80;100.00
21111;BME280;10713;51.912;4.494;2024-01-07T06:49:30;102255.47;;;1.77;100.00
21111;BME280;10713;51.912;4.494;2024-01-07T06:51:55;102263.06;;;1.67;100.00
21111;BME280;10713;51.912;4.494;2024-01-07T06:54:21;102263.81;;;1.63;100.00
21111;BME280;10713;51.912;4.494;2024-01-07T06:56:46;102269.03;;;1.61;100.00
21111;BME280;10713;51.912;4.494;2024-01-07T06:59:11;102270.00;;;1.66;100.00
21111;BME280;10713;51.912;4.494;2024-01-07T07:01:37;102271.69;;;1.64;100.00
21111;BME280;10713;51.912;4.494;2024-01-07T07:04:03;102279.56;;;1.69;100.00
21111;BME280;10713;51.912;4.494;2024-01-07T07:06:29;102269.06;;;1.64;100.00
21111;BME280;10713;51.912;4.494;2024-01-07T07:08:54;102284.91;;;1.75;100.00
21111;BME280;10713;51.912;4.494;2024-01-07T07:11:20;102285.94;;;1.83;100.00
21111;BME280;10713;51.912;4.494;2024-01-07T07:13:45;102288.47;;;1.78;100.00
21111;BME280;10713;51.912;4.494;2024-01-07T07:16:10;102290.09;;;1.73;100.00
21111;BME280;10713;51.912;4.494;2024-01-07T07:18:37;102297.13;;;1.77;100.00
21111;BME280;10713;51.912;4.494;2024-01-07T07:21:02;102302.44;;;1.84;100.00
21111;BME280;10713;51.912;4.494;2024-01-07T07:23:27;102300.66;;;1.81;100.00
21111;BME280;10713;51.912;4.494;2024-01-07T07:25:53;102302.56;;;1.90;100.00
21111;BME280;10713;51.912;4.494;2024-01-07T07:28:18;102311.97;;;1.83;100.00
21111;BME280;10713;51.912;4.494;2024-01-07T07:30:43;102310.06;;;1.74;100.00
21111;BME280;10713;51.912;4.494;2024-01-07T07:33:09;102326.72;;;1.83;100.00
21111;BME280;10713;51.912;4.494;2024-01-07T07:35:35;102325.75;;;1.77;100.00
21111;BME280;10713;51.912;4.494;2024-01-07T07:38:00;102321.44;;;1.79;100.00
21111;BME280;10713;51.912;4.494;2024-01-07T07:40:26;102344.81;;;1.76;100.00
21111;BME280;10713;51.912;4.494;2024-01-07T07:42:51;102331.38;;;1.56;100.00
21111;BME280;10713;51.912;4.494;2024-01-07T07:45:16;102324.50;;;1.60;100.00
21111;BME280;10713;51.912;4.494;2024-01-07T07:47:43;102355.69;;;1.57;100.00
21111;BME280;10713;51.912;4.494;2024-01-07T07:50:10;102356.47;;;1.53;100.00
21111;BME280;10713;51.912;4.494;2024-01-07T07:52:35;102361.41;;;1.41;100.00
21111;BME280;10713;51.912;4.494;2024-01-07T07:55:01;102352.75;;;1.42;100.00
21111;BME280;10713;51.912;4.494;2024-01-07T07:57:26;102362.28;;;1.43;100.00
21111;BME280;10713;51.912;4.494;2024-01-07T07:59:52;102369.22;;;1.41;100.00
21111;BME280;10713;51.912;4.494;2024-01-07T08:02:18;102360.63;;;1.45;100.00
21111;BME280;10713;51.912;4.494;2024-01-07T08:04:43;102373.56;;;1.42;100.00
21111;BME280;10713;51.912;4.494;2024-01-07T08:07:09;102374.41;;;1.41;100.00
21111;BME280;10713;51.912;4.494;2024-01-07T08:09:35;102366.69;;;1.44;100.00
21111;BME280;10713;51.912;4.494;2024-01-07T08:12:04;102368.47;;;1.46;100.00
21111;BME280;10713;51.912;4.494;2024-01-07T08:14:31;102369.22;;;1.42;100.00
21111;BME280;10713;51.912;4.494;2024-01-07T08:16:56;102380.44;;;1.40;100.00
21111;BME280;10713;51.912;4.494;2024-01-07T08:19:21;102387.25;;;1.33;100.00
21111;BME280;10713;51.912;4.494;2024-01-07T08:21:47;102383.84;;;1.35;100.00
21111;BME280;10713;51.912;4.494;2024-01-07T08:24:12;102390.91;;;1.43;100.00
21111;BME280;10713;51.912;4.494;2024-01-07T08:26:38;102401.25;;;1.38;100.00
21111;BME280;10713;51.912;4.494;2024-01-07T08:29:03;102396.06;;;1.40;100.00
21111;BME280;10713;51.912;4.494;2024-01-07T08:31:30;102400.38;;;1.38;100.00
21111;BME280;10713;51.912;4.494;2024-01-07T08:33:56;102413.06;;;1.25;100.00
21111;BME280;10713;51.912;4.494;2024-01-07T08:36:21;102417.19;;;1.17;100.00
21111;BME280;10713;51.912;4.494;2024-01-07T08:38:46;102417.13;;;1.14;100.00
21111;BME280;10713;51.912;4.494;2024-01-07T08:41:15;102418.09;;;1.18;100.00
21111;BME280;10713;51.912;4.494;2024-01-07T08:43:41;102422.53;;;1.22;100.00
21111;BME280;10713;51.912;4.494;2024-01-07T08:46:06;102414.09;;;1.32;100.00
21111;BME280;10713;51.912;4.494;2024-01-07T08:48:31;102422.84;;;1.35;100.00
21111;BME280;10713;51.912;4.494;2024-01-07T08:50:57;102416.88;;;1.40;100.00
21111;BME280;10713;51.912;4.494;2024-01-07T08:53:22;102417.88;;;1.45;100.00
21111;BME280;10713;51.912;4.494;2024-01-07T08:55:48;102423.88;;;1.42;100.00
21111;BME280;10713;51.912;4.494;2024-01-07T08:58:13;102435.09;;;1.40;100.00
21111;BME280;10713;51.912;4.494;2024-01-07T09:00:39;102428.88;;;1.33;100.00
21111;BME280;10713;51.912;4.494;2024-01-07T09:03:05;102425.34;;;1.31;100.00
21111;BME280;10713;51.912;4.494;2024-01-07T09:05:32;102434.19;;;1.38;100.00
21111;BME280;10713;51.912;4.494;2024-01-07T09:07:57;102437.53;;;1.33;100.00
21111;BME280;10713;51.912;4.494;2024-01-07T09:10:22;102439.31;;;1.34;100.00
21111;BME280;10713;51.912;4.494;2024-01-07T09:12:50;102447.94;;;1.33;100.00
21111;BME280;10713;51.912;4.494;2024-01-07T09:15:17;102442.41;;;1.20;100.00
21111;BME280;10713;51.912;4.494;2024-01-07T09:17:43;102448.47;;;1.20;100.00
21111;BME280;10713;51.912;4.494;2024-01-07T09:20:10;102470.00;;;1.13;100.00
21111;BME280;10713;51.912;4.494;2024-01-07T09:22:36;102457.78;;;1.10;100.00
21111;BME280;10713;51.912;4.494;2024-01-07T09:25:05;102468.03;;;1.04;100.00
21111;BME280;10713;51.912;4.494;2024-01-07T09:27:32;102476.63;;;1.00;100.00
21111;BME280;10713;51.912;4.494;2024-01-07T09:29:57;102461.97;;;1.04;100.00
21111;BME280;10713;51.912;4.494;2024-01-07T09:32:23;102470.72;;;1.07;100.00
21111;BME280;10713;51.912;4.494;2024-01-07T09:34:48;102476.00;;;1.10;100.00
21111;BME280;10713;51.912;4.494;2024-01-07T09:37:14;102478.75;;;1.17;100.00
21111;BME280;10713;51.912;4.494;2024-01-07T09:39:40;102490.88;;;1.16;100.00
21111;BME280;10713;51.912;4.494;2024-01-07T09:42:14;102482.91;;;1.10;100.00
21111;BME280;10713;51.912;4.494;2024-01-07T09:44:40;102494.06;;;1.06;100.00
21111;BME280;10713;51.912;4.494;2024-01-07T09:47:11;102482.91;;;1.10;100.00
21111;BME280;10713;51.912;4.494;2024-01-07T09:49:37;102491.69;;;1.13;100.00
21111;BME280;10713;51.912;4.494;2024-01-07T09:52:04;102495.41;;;1.23;100.00
21111;BME280;10713;51.912;4.494;2024-01-07T09:54:30;102508.53;;;1.28;100.00
21111;BME280;10713;51.912;4.494;2024-01-07T09:57:00;102514.53;;;1.25;100.00
21111;BME280;10713;51.912;4.494;2024-01-07T09:59:30;102512.84;;;1.27;100.00
21111;BME280;10713;51.912;4.494;2024-01-07T10:01:56;102519.72;;;1.25;100.00
21111;BME280;10713;51.912;4.494;2024-01-07T10:04:23;102521.28;;;1.19;100.00
21111;BME280;10713;51.912;4.494;2024-01-07T10:06:49;102521.16;;;1.14;100.00
21111;BME280;10713;51.912;4.494;2024-01-07T10:09:17;102516.97;;;1.19;100.00
21111;BME280;10713;51.912;4.494;2024-01-07T10:11:44;102523.66;;;1.09;100.00
21111;BME280;10713;51.912;4.494;2024-01-07T10:14:09;102533.06;;;1.04;100.00
21111;BME280;10713;51.912;4.494;2024-01-07T10:16:35;102526.50;;;0.87;100.00
21111;BME280;10713;51.912;4.494;2024-01-07T10:19:00;102533.63;;;0.94;100.00
21111;BME280;10713;51.912;4.494;2024-01-07T10:21:26;102527.84;;;1.04;100.00
21111;BME280;10713;51.912;4.494;2024-01-07T10:24:07;102525.25;;;1.04;100.00
21111;BME280;10713;51.912;4.494;2024-01-07T10:26:34;102535.81;;;1.10;100.00
21111;BME280;10713;51.912;4.494;2024-01-07T10:28:59;102537.41;;;1.05;100.00
21111;BME280;10713;51.912;4.494;2024-01-07T10:31:25;102529.66;;;1.07;100.00
21111;BME280;10713;51.912;4.494;2024-01-07T10:33:51;102528.00;;;1.10;100.00
21111;BME280;10713;51.912;4.494;2024-01-07T10:36:17;102536.91;;;1.19;100.00
21111;BME280;10713;51.912;4.494;2024-01-07T10:38:44;102548.09;;;1.15;100.00
21111;BME280;10713;51.912;4.494;2024-01-07T10:41:11;102549.84;;;1.16;100.00
21111;BME280;10713;51.912;4.494;2024-01-07T10:43:38;102542.97;;;1.18;100.00
21111;BME280;10713;51.912;4.494;2024-01-07T10:46:04;102546.44;;;1.18;100.00
21111;BME280;10713;51.912;4.494;2024-01-07T10:48:35;102549.91;;;1.19;100.00
21111;BME280;10713;51.912;4.494;2024-01-07T10:51:02;102552.28;;;1.09;100.00
21111;BME280;10713;51.912;4.494;2024-01-07T10:53:33;102539.28;;;1.09;100.00
21111;BME280;10713;51.912;4.494;2024-01-07T10:56:08;102552.38;;;1.14;100.00
21111;BME280;10713;51.912;4.494;2024-01-07T10:58:36;102558.50;;;1.16;100.00
21111;BME280;10713;51.912;4.494;2024-01-07T11:01:02;102546.22;;;1.10;100.00
21111;BME280;10713;51.912;4.494;2024-01-07T11:03:38;102553.00;;;1.04;100.00
21111;BME280;10713;51.912;4.494;2024-01-07T11:06:11;102561.59;;;1.01;100.00
21111;BME280;10713;51.912;4.494;2024-01-07T11:08:45;102546.69;;;0.96;100.00
21111;BME280;10713;51.912;4.494;2024-01-07T11:11:18;102539.06;;;1.02;100.00
21111;BME280;10713;51.912;4.494;2024-01-07T11:13:46;102549.59;;;1.06;100.00
21111;BME280;10713;51.912;4.494;2024-01-07T11:16:11;102551.97;;;0.99;100.00
21111;BME280;10713;51.912;4.494;2024-01-07T11:18:45;102534.00;;;1.06;100.00
21111;BME280;10713;51.912;4.494;2024-01-07T11:21:20;102536.75;;;1.12;100.00
21111;BME280;10713;51.912;4.494;2024-01-07T11:23:46;102549.41;;;1.32;100.00
21111;BME280;10713;51.912;4.494;2024-01-07T11:26:11;102540.75;;;1.33;100.00
21111;BME280;10713;51.912;4.494;2024-01-07T11:31:12;102545.03;;;1.31;100.00
21111;BME280;10713;51.912;4.494;2024-01-07T11:33:38;102546.81;;;1.32;100.00
21111;BME280;10713;51.912;4.494;2024-01-07T11:36:05;102570.66;;;1.17;100.00
21111;BME280;10713;51.912;4.494;2024-01-07T11:38:30;102566.00;;;1.04;100.00
21111;BME280;10713;51.912;4.494;2024-01-07T11:40:56;102558.75;;;0.94;100.00
21111;BME280;10713;51.912;4.494;2024-01-07T11:43:22;102551.91;;;0.97;100.00
21111;BME280;10713;51.912;4.494;2024-01-07T11:45:51;102556.22;;;0.95;100.00
21111;BME280;10713;51.912;4.494;2024-01-07T11:48:18;102559.69;;;0.96;100.00
21111;BME280;10713;51.912;4.494;2024-01-07T11:50:43;102556.28;;;0.98;100.00
21111;BME280;10713;51.912;4.494;2024-01-07T11:53:11;102562.63;;;1.08;100.00
21111;BME280;10713;51.912;4.494;2024-01-07T11:55:36;102541.88;;;1.11;100.00
21111;BME280;10713;51.912;4.494;2024-01-07T11:58:02;102551.63;;;1.18;100.00
21111;BME280;10713;51.912;4.494;2024-01-07T12:00:31;102562.78;;;1.14;100.00
21111;BME280;10713;51.912;4.494;2024-01-07T12:02:56;102565.13;;;1.05;100.00
21111;BME280;10713;51.912;4.494;2024-01-07T12:05:22;102561.53;;;1.00;100.00
21111;BME280;10713;51.912;4.494;2024-01-07T12:07:47;102558.03;;;0.99;100.00
21111;BME280;10713;51.912;4.494;2024-01-07T12:10:12;102563.50;;;1.08;100.00
21111;BME280;10713;51.912;4.494;2024-01-07T12:12:39;102559.31;;;1.13;100.00
21111;BME280;10713;51.912;4.494;2024-01-07T12:15:06;102569.13;;;1.24;100.00
21111;BME280;10713;51.912;4.494;2024-01-07T12:17:32;102556.50;;;1.39;100.00
21111;BME280;10713;51.912;4.494;2024-01-07T12:19:57;102558.69;;;1.55;100.00
21111;BME280;10713;51.912;4.494;2024-01-07T12:22:23;102551.25;;;1.71;100.00
21111;BME280;10713;51.912;4.494;2024-01-07T12:24:59;102558.31;;;1.76;100.00
21111;BME280;10713;51.912;4.494;2024-01-07T12:27:25;102550.72;;;1.86;100.00
21111;BME280;10713;51.912;4.494;2024-01-07T12:29:57;102557.72;;;1.88;100.00
21111;BME280;10713;51.912;4.494;2024-01-07T12:32:22;102562.91;;;1.87;100.00
21111;BME280;10713;51.912;4.494;2024-01-07T12:34:51;102564.41;;;1.77;100.00
21111;BME280;10713;51.912;4.494;2024-01-07T12:37:16;102566.91;;;1.72;100.00
21111;BME280;10713;51.912;4.494;2024-01-07T12:39:42;102572.94;;;1.71;100.00
21111;BME280;10713;51.912;4.494;2024-01-07T12:42:07;102560.03;;;1.76;100.00
21111;BME280;10713;51.912;4.494;2024-01-07T12:44:35;102560.91;;;1.75;100.00
21111;BME280;10713;51.912;4.494;2024-01-07T12:47:01;102563.59;;;1.79;100.00